createdAt,value
2017-12-21T00:00:32.356Z,8.07
2017-12-21T00:03:00.578Z,7.13
2017-12-21T00:05:28.136Z,8.40
2017-12-21T00:07:57.458Z,6.60
2017-12-21T00:10:24.998Z,6.10
2017-12-21T00:12:53.292Z,8.30
2017-12-21T00:15:23.325Z,7.10
2017-12-21T00:17:50.852Z,8.20
2017-12-21T00:20:18.393Z,9.37
2017-12-21T00:22:45.918Z,11.50
2017-12-21T00:25:13.445Z,9.57
2017-12-21T00:27:40.969Z,9.70
2017-12-21T00:30:09.315Z,12.20
2017-12-21T00:32:36.851Z,14.47
2017-12-21T00:35:05.163Z,10.43
2017-12-21T00:37:33.087Z,9.23
2017-12-21T00:40:00.624Z,14.57
2017-12-21T00:42:29.074Z,13.33
2017-12-21T00:44:56.617Z,11.50
2017-12-21T00:47:24.133Z,15.80
2017-12-21T00:49:51.678Z,11.70
2017-12-21T00:52:19.970Z,11.83
2017-12-21T00:54:47.509Z,13.10
2017-12-21T00:57:15.022Z,12.47
2017-12-21T00:59:42.558Z,12.30
2017-12-21T01:02:10.673Z,12.67
2017-12-21T01:04:38.217Z,15.60
2017-12-21T01:07:05.728Z,13.10
2017-12-21T01:09:34.096Z,12.03
2017-12-21T01:12:01.617Z,15.20
2017-12-21T01:14:29.138Z,12.43
2017-12-21T01:16:57.017Z,13.13
2017-12-21T01:19:25.248Z,14.00
2017-12-21T01:21:53.562Z,14.70
2017-12-21T01:24:21.076Z,14.17
2017-12-21T01:26:49.360Z,14.20
2017-12-21T01:29:16.877Z,14.47
2017-12-21T01:31:44.409Z,13.37
2017-12-21T01:34:11.933Z,15.93
2017-12-21T01:36:40.126Z,15.20
2017-12-21T01:39:08.582Z,14.30
2017-12-21T01:41:36.109Z,17.23
2017-12-21T01:44:03.642Z,16.70
2017-12-21T01:46:31.185Z,15.93
2017-12-21T01:48:58.700Z,17.33
2017-12-21T01:51:27.005Z,18.43
2017-12-21T01:53:54.529Z,18.90
2017-12-21T01:56:22.085Z,21.07
2017-12-21T01:58:49.616Z,17.77
2017-12-21T02:01:17.174Z,18.43
2017-12-21T02:03:44.695Z,21.53
2017-12-21T02:06:12.229Z,20.77
2017-12-21T02:08:39.736Z,19.10
2017-12-21T02:11:07.286Z,21.07
2017-12-21T02:13:34.810Z,18.17
2017-12-21T02:16:04.618Z,19.87
2017-12-21T02:18:32.129Z,17.33
2017-12-21T02:20:59.661Z,21.50
2017-12-21T02:23:27.177Z,20.70
2017-12-21T02:25:54.698Z,21.60
2017-12-21T02:28:22.235Z,23.27
2017-12-21T02:30:49.767Z,17.47
2017-12-21T02:33:17.320Z,19.33
2017-12-21T02:35:46.344Z,18.13
2017-12-21T02:38:14.765Z,19.53
2017-12-21T02:40:42.276Z,19.50
2017-12-21T02:43:09.823Z,20.03
2017-12-21T02:45:37.333Z,19.03
2017-12-21T02:48:04.875Z,23.40
2017-12-21T02:50:32.385Z,22.07
2017-12-21T02:52:59.917Z,20.97
2017-12-21T02:55:28.321Z,20.30
2017-12-21T02:57:56.257Z,22.00
2017-12-21T03:00:23.773Z,17.00
2017-12-21T03:02:51.513Z,18.43
2017-12-21T03:05:19.048Z,21.50
2017-12-21T03:07:46.577Z,22.80
2017-12-21T03:10:14.861Z,22.03
2017-12-21T03:12:42.514Z,22.10
2017-12-21T03:15:11.537Z,30.57
2017-12-21T03:17:39.074Z,21.40
2017-12-21T03:20:08.093Z,22.93
2017-12-21T03:22:36.577Z,22.20
2017-12-21T03:25:04.113Z,22.20
2017-12-21T03:27:31.661Z,22.93
2017-12-21T03:30:00.097Z,20.63
2017-12-21T03:32:27.636Z,23.90
2017-12-21T03:34:55.155Z,22.70
2017-12-21T03:37:22.706Z,23.30
2017-12-21T03:39:51.125Z,24.47
2017-12-21T03:42:19.629Z,23.23
2017-12-21T03:44:49.875Z,19.63
2017-12-21T03:47:17.394Z,22.67
2017-12-21T03:49:44.929Z,19.40
2017-12-21T03:52:12.698Z,22.80
2017-12-21T03:54:41.009Z,23.87
2017-12-21T03:57:09.269Z,21.13
2017-12-21T03:59:36.810Z,20.23
2017-12-21T04:02:05.785Z,20.90
2017-12-21T04:04:33.318Z,19.77
2017-12-21T04:07:00.842Z,19.40
2017-12-21T04:09:28.373Z,20.70
2017-12-21T04:11:57.432Z,24.33
2017-12-21T04:14:24.966Z,23.77
2017-12-21T04:16:52.473Z,26.07
2017-12-21T04:19:20.773Z,23.50
2017-12-21T04:21:49.066Z,22.87
2017-12-21T04:24:16.602Z,23.87
2017-12-21T04:26:44.985Z,25.37
2017-12-21T04:29:12.528Z,21.00
2017-12-21T04:31:40.789Z,22.17
2017-12-21T04:34:08.329Z,18.07
2017-12-21T04:36:35.845Z,20.53
2017-12-21T04:39:03.389Z,17.37
2017-12-21T04:41:30.901Z,16.60
2017-12-21T04:43:58.431Z,18.27
2017-12-21T04:46:26.701Z,19.27
2017-12-21T04:48:55.878Z,15.50
2017-12-21T04:51:23.386Z,19.73
2017-12-21T04:53:50.918Z,21.23
2017-12-21T04:56:19.409Z,18.97
2017-12-21T04:58:48.492Z,19.80
2017-12-21T05:01:16.012Z,18.40
2017-12-21T05:03:43.535Z,21.93
2017-12-21T05:06:11.069Z,21.07
2017-12-21T05:08:39.655Z,18.73
2017-12-21T05:11:07.968Z,17.87
2017-12-21T05:13:35.524Z,18.10
2017-12-21T05:16:03.057Z,19.10
2017-12-21T05:18:31.349Z,19.10
2017-12-21T05:21:00.420Z,21.60
2017-12-21T05:23:28.552Z,21.77
2017-12-21T05:25:56.098Z,21.80
2017-12-21T05:28:24.710Z,19.40
2017-12-21T05:30:52.296Z,20.83
2017-12-21T05:33:19.811Z,19.97
2017-12-21T05:35:47.355Z,23.60
2017-12-21T05:38:14.869Z,19.37
2017-12-21T05:40:42.395Z,22.17
2017-12-21T05:43:10.097Z,20.30
2017-12-21T05:45:37.957Z,20.07
2017-12-21T05:48:05.478Z,21.00
2017-12-21T05:50:33.013Z,18.60
2017-12-21T05:53:00.521Z,25.00
2017-12-21T05:55:28.992Z,21.30
2017-12-21T05:57:56.545Z,22.40
2017-12-21T06:00:24.086Z,22.60
2017-12-21T06:02:51.609Z,20.50
2017-12-21T06:05:19.168Z,24.00
2017-12-21T06:07:46.694Z,34.37
2017-12-21T06:10:14.226Z,23.00
2017-12-21T06:12:41.737Z,25.63
2017-12-21T06:15:10.098Z,26.83
2017-12-21T06:17:38.569Z,24.47
2017-12-21T06:20:06.118Z,24.93
2017-12-21T06:22:33.628Z,27.87
2017-12-21T06:25:01.146Z,26.60
2017-12-21T06:27:28.688Z,25.27
2017-12-21T06:29:56.209Z,25.93
2017-12-21T06:32:23.818Z,26.43
2017-12-21T06:34:51.738Z,26.47
2017-12-21T06:37:19.272Z,24.37
2017-12-21T06:39:47.786Z,27.90
2017-12-21T06:42:15.317Z,29.73
2017-12-21T06:44:42.843Z,28.47
2017-12-21T06:47:10.372Z,25.37
2017-12-21T06:49:37.885Z,27.00
2017-12-21T06:52:06.184Z,27.77
2017-12-21T06:54:33.704Z,33.77
2017-12-21T06:57:01.242Z,32.57
2017-12-21T06:59:28.815Z,28.03
2017-12-21T07:01:56.346Z,24.97
2017-12-21T07:04:23.857Z,28.87
2017-12-21T07:06:51.389Z,25.97
2017-12-21T07:09:19.730Z,28.37
2017-12-21T07:11:47.269Z,22.73
2017-12-21T07:14:14.782Z,22.53
2017-12-21T07:16:42.321Z,27.30
2017-12-21T07:19:10.605Z,28.90
2017-12-21T07:21:38.545Z,25.33
2017-12-21T07:24:06.060Z,33.03
2017-12-21T07:26:34.255Z,22.80
2017-12-21T07:29:01.771Z,19.53
2017-12-21T07:31:30.048Z,23.33
2017-12-21T07:33:58.029Z,23.13
2017-12-21T07:36:25.541Z,21.27
2017-12-21T07:38:53.084Z,22.33
2017-12-21T07:41:22.190Z,23.13
2017-12-21T07:43:50.498Z,20.50
2017-12-21T07:46:18.008Z,19.90
2017-12-21T07:48:46.356Z,26.00
2017-12-21T07:51:13.865Z,19.40
2017-12-21T07:53:42.886Z,19.23
2017-12-21T07:56:10.805Z,22.03
2017-12-21T07:58:39.906Z,23.77
2017-12-21T08:01:07.421Z,20.50
2017-12-21T08:03:35.746Z,21.70
2017-12-21T08:06:04.028Z,26.10
2017-12-21T08:08:32.709Z,21.20
2017-12-21T08:11:00.983Z,19.17
2017-12-21T08:13:29.291Z,28.93
2017-12-21T08:15:58.425Z,22.17
2017-12-21T08:18:25.968Z,22.33
2017-12-21T08:20:54.250Z,17.90
2017-12-21T08:23:22.558Z,25.23
2017-12-21T08:25:50.991Z,22.53
2017-12-21T08:28:20.903Z,19.90
2017-12-21T08:30:49.042Z,16.83
2017-12-21T08:33:17.636Z,19.73
2017-12-21T08:35:45.581Z,21.47
2017-12-21T08:38:14.090Z,21.70
2017-12-21T08:40:42.365Z,19.40
2017-12-21T08:43:10.673Z,20.20
2017-12-21T08:45:38.190Z,19.37
2017-12-21T08:48:06.371Z,20.10
2017-12-21T08:50:34.765Z,18.60
2017-12-21T08:53:02.943Z,22.03
2017-12-21T08:55:31.217Z,16.90
2017-12-21T08:57:59.523Z,20.80
2017-12-21T09:00:27.828Z,17.80
2017-12-21T09:02:56.106Z,22.30
2017-12-21T09:05:24.057Z,21.70
2017-12-21T09:07:52.230Z,20.17
2017-12-21T09:10:19.777Z,20.77
2017-12-21T09:12:47.692Z,22.40
2017-12-21T09:15:15.234Z,17.73
2017-12-21T09:17:43.516Z,20.67
2017-12-21T09:20:11.049Z,18.20
2017-12-21T09:22:39.041Z,18.00
2017-12-21T09:25:07.356Z,18.23
2017-12-21T09:27:36.418Z,22.03
2017-12-21T09:30:04.350Z,21.90
2017-12-21T09:32:32.653Z,24.87
2017-12-21T09:35:00.588Z,20.10
2017-12-21T09:37:28.865Z,23.60
2017-12-21T09:39:56.407Z,20.67
2017-12-21T09:42:24.371Z,23.43
2017-12-21T09:44:52.751Z,18.47
2017-12-21T09:47:21.042Z,17.43
2017-12-21T09:49:49.344Z,21.20
2017-12-21T09:52:16.857Z,18.40
2017-12-21T09:54:44.782Z,17.57
2017-12-21T09:57:13.116Z,20.30
2017-12-21T09:59:41.773Z,18.80
2017-12-21T10:02:09.694Z,23.97
2017-12-21T10:04:37.621Z,17.83
2017-12-21T10:07:05.529Z,18.17
2017-12-21T10:09:33.488Z,18.70
2017-12-21T10:12:02.720Z,18.10
2017-12-21T10:14:31.022Z,17.97
2017-12-21T10:16:58.940Z,17.93
2017-12-21T10:19:26.858Z,15.83
2017-12-21T10:21:55.182Z,18.37
2017-12-21T10:24:23.473Z,17.30
2017-12-21T10:26:51.007Z,19.33
2017-12-21T10:29:19.673Z,23.73
2017-12-21T10:31:48.808Z,10.50
2017-12-21T10:34:17.138Z,13.80
2017-12-21T10:36:45.447Z,12.73
2017-12-21T10:39:13.736Z,12.43
2017-12-21T10:41:42.044Z,14.30
2017-12-21T10:44:11.066Z,12.10
2017-12-21T10:46:38.998Z,11.77
2017-12-21T10:49:07.294Z,12.40
2017-12-21T10:51:35.608Z,12.70
2017-12-21T10:54:03.903Z,12.10
2017-12-21T10:56:32.941Z,12.20
2017-12-21T10:59:00.461Z,10.63
2017-12-21T11:01:28.087Z,14.20
2017-12-21T11:03:57.147Z,11.43
2017-12-21T11:06:25.154Z,11.37
2017-12-21T11:08:53.896Z,10.73
2017-12-21T11:11:24.469Z,9.57
2017-12-21T11:13:53.562Z,12.37
2017-12-21T11:16:22.342Z,13.93
2017-12-21T11:18:50.259Z,10.53
2017-12-21T11:21:18.816Z,10.60
2017-12-21T11:23:47.568Z,10.00
2017-12-21T11:26:17.792Z,9.40
2017-12-21T11:28:45.358Z,10.10
2017-12-21T11:31:13.657Z,10.13
2017-12-21T11:33:41.966Z,13.60
2017-12-21T11:36:10.293Z,10.53
2017-12-21T11:38:38.587Z,9.67
2017-12-21T11:41:08.337Z,16.90
2017-12-21T11:43:36.970Z,11.03
2017-12-21T11:46:04.901Z,10.07
2017-12-21T11:48:33.189Z,11.20
2017-12-21T11:51:02.294Z,11.57
2017-12-21T11:53:30.949Z,12.27
2017-12-21T11:55:58.489Z,10.37
2017-12-21T11:58:27.028Z,13.13
2017-12-21T12:00:54.962Z,10.07
2017-12-21T12:03:23.266Z,9.97
2017-12-21T12:05:51.499Z,10.63
2017-12-21T12:08:19.041Z,11.30
2017-12-21T12:10:47.325Z,12.20
2017-12-21T12:13:15.626Z,15.57
2017-12-21T12:15:43.906Z,9.37
2017-12-21T12:18:12.221Z,14.83
2017-12-21T12:20:40.833Z,10.37
2017-12-21T12:23:15.951Z,9.57
2017-12-21T12:25:45.899Z,10.53
2017-12-21T12:28:14.106Z,13.53
2017-12-21T12:30:42.403Z,10.13
2017-12-21T12:33:10.736Z,9.07
2017-12-21T12:35:39.852Z,8.60
2017-12-21T12:38:07.385Z,8.43
2017-12-21T12:40:35.678Z,10.80
2017-12-21T12:43:03.992Z,10.10
2017-12-21T12:45:31.500Z,9.77
2017-12-21T12:47:59.428Z,8.93
2017-12-21T12:50:27.884Z,8.70
2017-12-21T12:52:56.189Z,10.20
2017-12-21T12:55:24.506Z,7.53
2017-12-21T12:57:52.801Z,8.50
2017-12-21T13:00:21.302Z,11.90
2017-12-21T13:02:49.604Z,9.17
2017-12-21T13:05:18.140Z,6.50
2017-12-21T13:07:46.069Z,7.23
2017-12-21T13:10:13.693Z,7.47
2017-12-21T13:12:43.137Z,7.70
2017-12-21T13:15:11.873Z,7.47
2017-12-21T13:17:40.710Z,11.53
2017-12-21T13:20:08.448Z,11.60
2017-12-21T13:22:36.729Z,8.83
2017-12-21T13:25:05.027Z,8.60
2017-12-21T13:27:33.317Z,7.30
2017-12-21T13:30:02.485Z,8.23
2017-12-21T13:32:30.001Z,10.47
2017-12-21T13:34:58.304Z,8.00
2017-12-21T13:37:26.577Z,8.60
2017-12-21T13:39:54.967Z,8.37
2017-12-21T13:42:23.340Z,5.80
2017-12-21T13:44:51.652Z,5.83
2017-12-21T13:47:20.177Z,6.10
2017-12-21T13:49:48.483Z,6.57
2017-12-21T13:52:16.870Z,6.00
2017-12-21T13:54:45.175Z,7.93
2017-12-21T13:57:13.590Z,6.67
2017-12-21T13:59:41.967Z,6.97
2017-12-21T14:02:10.818Z,8.77
2017-12-21T14:04:38.357Z,9.93
2017-12-21T14:07:05.872Z,10.00
2017-12-21T14:09:34.736Z,8.53
2017-12-21T14:12:03.380Z,11.13
2017-12-21T14:14:30.905Z,10.50
2017-12-21T14:16:59.177Z,8.00
2017-12-21T14:19:27.105Z,6.93
2017-12-21T14:21:54.618Z,8.80
2017-12-21T14:24:22.542Z,9.80
2017-12-21T14:26:50.818Z,9.23
2017-12-21T14:29:19.129Z,9.47
2017-12-21T14:31:46.681Z,9.03
2017-12-21T14:34:14.606Z,9.47
2017-12-21T14:36:42.874Z,11.50
2017-12-21T14:39:10.373Z,8.87
2017-12-21T14:41:38.305Z,6.07
2017-12-21T14:44:06.582Z,7.90
2017-12-21T14:46:35.017Z,6.23
2017-12-21T14:49:03.310Z,6.83
2017-12-21T14:51:31.636Z,6.53
2017-12-21T14:53:59.919Z,6.70
2017-12-21T14:56:27.461Z,8.30
2017-12-21T14:58:56.213Z,7.53
2017-12-21T15:01:24.518Z,5.73
2017-12-21T15:03:52.062Z,12.80
2017-12-21T15:06:20.369Z,6.93
2017-12-21T15:08:48.646Z,5.43
2017-12-21T15:11:16.168Z,7.17
2017-12-21T15:13:44.077Z,6.90
2017-12-21T15:16:12.413Z,8.80
2017-12-21T15:18:40.690Z,7.27
2017-12-21T15:21:09.009Z,5.80
2017-12-21T15:23:36.540Z,13.47
2017-12-21T15:26:04.484Z,8.90
2017-12-21T15:28:32.766Z,8.63
2017-12-21T15:31:01.068Z,6.17
2017-12-21T15:33:29.371Z,6.50
2017-12-21T15:35:57.752Z,6.60
2017-12-21T15:38:26.038Z,7.93
2017-12-21T15:40:54.337Z,8.17
2017-12-21T15:43:21.838Z,6.90
2017-12-21T15:45:49.760Z,8.57
2017-12-21T15:48:18.084Z,8.27
2017-12-21T15:50:45.621Z,9.83
2017-12-21T15:53:13.534Z,5.63
2017-12-21T15:55:43.081Z,6.43
2017-12-21T15:58:11.346Z,5.80
2017-12-21T16:00:38.868Z,6.50
2017-12-21T16:03:06.797Z,9.90
2017-12-21T16:05:35.815Z,7.70
2017-12-21T16:08:03.760Z,8.23
2017-12-21T16:10:32.048Z,6.10
2017-12-21T16:13:00.337Z,6.30
2017-12-21T16:15:28.757Z,9.20
2017-12-21T16:17:58.317Z,7.77
2017-12-21T16:20:26.775Z,6.50
2017-12-21T16:22:55.191Z,5.10
2017-12-21T16:25:25.011Z,5.03
2017-12-21T16:27:53.850Z,6.40
2017-12-21T16:30:21.372Z,5.50
2017-12-21T16:32:49.669Z,7.10
2017-12-21T16:35:17.945Z,5.83
2017-12-21T16:37:46.671Z,5.80
2017-12-21T16:40:14.963Z,4.97
2017-12-21T16:42:44.197Z,5.20
2017-12-21T16:45:11.709Z,6.83
2017-12-21T16:47:40.021Z,4.60
2017-12-21T16:50:08.296Z,4.77
2017-12-21T16:52:36.591Z,4.27
2017-12-21T16:55:05.761Z,4.43
2017-12-21T16:57:34.084Z,5.00
2017-12-21T17:00:01.600Z,4.00
2017-12-21T17:02:29.933Z,5.90
2017-12-21T17:04:58.985Z,9.70
2017-12-21T17:07:26.913Z,4.10
2017-12-21T17:09:55.210Z,4.93
2017-12-21T17:12:23.514Z,6.40
2017-12-21T17:14:51.880Z,7.00
2017-12-21T17:17:20.194Z,10.50
2017-12-21T17:19:48.874Z,8.60
2017-12-21T17:22:17.575Z,9.93
2017-12-21T17:24:45.113Z,12.00
2017-12-21T17:27:13.408Z,14.80
2017-12-21T17:29:40.925Z,9.20
2017-12-21T17:32:08.844Z,8.33
2017-12-21T17:34:37.146Z,10.00
2017-12-21T17:37:06.886Z,8.60
2017-12-21T17:39:36.133Z,13.87
2017-12-21T17:42:03.653Z,10.47
2017-12-21T17:44:32.531Z,8.37
2017-12-21T17:47:02.636Z,7.53
2017-12-21T17:49:32.901Z,5.67
2017-12-21T17:52:01.354Z,8.03
2017-12-21T17:54:29.487Z,4.30
2017-12-21T17:56:57.409Z,5.37
2017-12-21T17:59:25.720Z,6.13
2017-12-21T18:01:54.003Z,4.50
2017-12-21T18:04:22.289Z,5.10
2017-12-21T18:06:51.411Z,7.17
2017-12-21T18:09:19.043Z,5.40
2017-12-21T18:11:47.329Z,5.20
2017-12-21T18:14:16.549Z,7.03
2017-12-21T18:16:44.121Z,5.57
2017-12-21T18:19:12.450Z,7.40
2017-12-21T18:21:40.811Z,8.73
2017-12-21T18:24:09.147Z,6.07
2017-12-21T18:26:38.199Z,5.83
2017-12-21T18:29:06.764Z,7.80
2017-12-21T18:31:34.285Z,7.87
2017-12-21T18:34:02.619Z,8.17
2017-12-21T18:36:31.147Z,6.03
2017-12-21T18:39:00.231Z,9.70
2017-12-21T18:41:27.797Z,6.53
2017-12-21T18:43:56.102Z,5.90
2017-12-21T18:46:24.448Z,5.80
2017-12-21T18:48:52.784Z,8.13
2017-12-21T18:51:21.129Z,7.80
2017-12-21T18:53:49.817Z,6.80
2017-12-21T18:56:17.747Z,8.07
2017-12-21T18:58:46.123Z,7.80
2017-12-21T19:01:14.486Z,6.23
2017-12-21T19:03:43.014Z,8.83
2017-12-21T19:06:11.358Z,7.30
2017-12-21T19:08:39.675Z,6.50
2017-12-21T19:11:08.730Z,5.20
2017-12-21T19:13:36.555Z,5.37
2017-12-21T19:16:04.493Z,7.83
2017-12-21T19:18:32.068Z,6.43
2017-12-21T19:21:00.044Z,4.40
2017-12-21T19:23:28.337Z,4.53
2017-12-21T19:25:56.656Z,5.20
2017-12-21T19:28:25.968Z,5.70
2017-12-21T19:30:54.485Z,6.37
2017-12-21T19:33:22.010Z,6.10
2017-12-21T19:35:49.991Z,6.40
2017-12-21T19:38:18.567Z,6.20
2017-12-21T19:40:47.793Z,7.43
2017-12-21T19:43:15.360Z,5.70
2017-12-21T19:45:45.240Z,6.93
2017-12-21T19:48:13.184Z,4.20
2017-12-21T19:50:41.531Z,5.57
2017-12-21T19:53:10.687Z,6.73
2017-12-21T19:55:38.273Z,5.20
2017-12-21T19:58:06.611Z,5.53
2017-12-21T20:00:36.056Z,6.47
2017-12-21T20:03:03.606Z,6.57
2017-12-21T20:05:31.582Z,6.60
2017-12-21T20:07:59.140Z,7.07
2017-12-21T20:10:27.864Z,5.87
2017-12-21T20:12:56.682Z,6.50
2017-12-21T20:15:25.029Z,9.87
2017-12-21T20:17:53.455Z,8.33
2017-12-21T20:20:21.790Z,9.90
2017-12-21T20:22:51.888Z,7.57
2017-12-21T20:25:19.870Z,12.80
2017-12-21T20:27:49.383Z,12.33
2017-12-21T20:30:16.992Z,11.70
2017-12-21T20:32:45.372Z,6.87
2017-12-21T20:35:13.332Z,6.07
2017-12-21T20:37:41.641Z,7.30
2017-12-21T20:40:10.310Z,6.30
2017-12-21T20:42:38.765Z,5.63
2017-12-21T20:45:06.677Z,6.53
2017-12-21T20:47:34.268Z,5.90
2017-12-21T20:50:02.238Z,8.40
2017-12-21T20:52:30.532Z,5.27
2017-12-21T20:54:58.873Z,5.63
2017-12-21T20:57:27.270Z,4.67
2017-12-21T20:59:55.829Z,5.00
2017-12-21T21:02:24.171Z,5.93
2017-12-21T21:04:52.499Z,5.53
2017-12-21T21:07:20.797Z,4.60
2017-12-21T21:09:49.157Z,5.20
2017-12-21T21:12:17.509Z,4.80
2017-12-21T21:14:45.833Z,5.27
2017-12-21T21:17:15.109Z,7.33
2017-12-21T21:19:42.665Z,5.87
2017-12-21T21:22:11.007Z,6.93
2017-12-21T21:24:40.967Z,5.13
2017-12-21T21:27:08.953Z,6.57
2017-12-21T21:29:38.210Z,5.63
2017-12-21T21:32:05.811Z,6.23
2017-12-21T21:34:35.319Z,5.50
2017-12-21T21:37:04.407Z,8.50
2017-12-21T21:39:32.721Z,6.37
2017-12-21T21:42:00.657Z,6.73
2017-12-21T21:44:29.723Z,10.07
2017-12-21T21:46:57.303Z,8.53
2017-12-21T21:49:25.640Z,8.97
2017-12-21T21:51:53.940Z,10.50
2017-12-21T21:54:22.291Z,6.03
2017-12-21T21:56:50.583Z,5.10
2017-12-21T21:59:18.893Z,5.00
2017-12-21T22:01:47.238Z,6.10
2017-12-21T22:04:15.588Z,5.17
2017-12-21T22:06:43.923Z,10.77
2017-12-21T22:09:12.312Z,5.50
2017-12-21T22:11:40.849Z,6.00
2017-12-21T22:14:09.214Z,6.27
2017-12-21T22:16:37.826Z,6.30
2017-12-21T22:19:05.820Z,5.50
2017-12-21T22:21:34.869Z,5.43
2017-12-21T22:24:02.457Z,5.27
2017-12-21T22:26:31.064Z,5.20
2017-12-21T22:28:59.414Z,7.10
2017-12-21T22:31:28.929Z,8.23
2017-12-21T22:33:57.289Z,6.47
2017-12-21T22:36:25.608Z,6.43
2017-12-21T22:38:54.029Z,6.07
2017-12-21T22:41:22.870Z,5.93
2017-12-21T22:43:50.836Z,6.27
2017-12-21T22:46:19.976Z,6.07
2017-12-21T22:48:47.776Z,6.50
2017-12-21T22:51:16.893Z,6.10
2017-12-21T22:53:44.897Z,6.53
2017-12-21T22:56:13.185Z,5.70
2017-12-21T22:58:40.748Z,8.37
2017-12-21T23:01:08.345Z,7.10
2017-12-21T23:03:36.331Z,6.33
2017-12-21T23:06:04.667Z,6.97
2017-12-21T23:08:33.305Z,11.03
2017-12-21T23:11:01.365Z,6.20
2017-12-21T23:13:29.681Z,7.43
2017-12-21T23:15:57.983Z,8.00
2017-12-21T23:18:26.268Z,6.30
2017-12-21T23:20:54.620Z,8.07
2017-12-21T23:23:22.956Z,8.30
2017-12-21T23:25:51.303Z,8.00
2017-12-21T23:28:20.338Z,8.83
2017-12-21T23:30:48.632Z,9.00
2017-12-21T23:33:16.590Z,11.30
2017-12-21T23:35:44.899Z,12.10
2017-12-21T23:38:13.540Z,14.73
2017-12-21T23:40:42.339Z,10.70
2017-12-21T23:43:10.705Z,8.50
2017-12-21T23:45:38.243Z,9.07
2017-12-21T23:48:06.604Z,9.47
2017-12-21T23:50:34.904Z,9.10
2017-12-21T23:53:03.198Z,8.73
2017-12-21T23:55:30.781Z,8.20
2017-12-21T23:57:58.693Z,10.07
